RYR3SE LEMG-GCRR
Flight info
| Callsign | RYR3SE |
|---|---|
| Flight time | 2h 11m |
| Altitude | 37000 |
| Route | PIMOS N869 GALTO UN869 PELAX UB11 MABAP UN869 ADM UG850 DEVLA |
| Aircraft | B738/M-SDFGILRWY/SB1 |
Departure
| Time | 2026-05-06 10:23 |
|---|---|
| Airport | Málaga-Costa del Sol Airport (LEMG) |
Arrival
| Time | 2026-05-06 12:34 |
|---|---|
| Airport | César Manrique-Lanzarote Airport (GCRR) |
| Time | Latitude | Longitude | Altitude | Speed | Heading |
|---|---|---|---|---|---|
| 2026-05-06 09:59 | 36.67801 | -4.49658 | 48 ft | 0 kts | 131° |
| 2026-05-06 10:13 | 36.67805 | -4.49663 | 49 ft | 2 kts | 131° |
| 2026-05-06 10:14 | 36.67815 | -4.49677 | 50 ft | 2 kts | 131° |
| 2026-05-06 10:14 | 36.67824 | -4.49691 | 51 ft | 2 kts | 131° |
| 2026-05-06 10:14 | 36.67834 | -4.49705 | 51 ft | 2 kts | 131° |
| 2026-05-06 10:14 | 36.67844 | -4.49719 | 51 ft | 2 kts | 131° |
| 2026-05-06 10:15 | 36.67854 | -4.49734 | 51 ft | 2 kts | 131° |
| 2026-05-06 10:15 | 36.67865 | -4.49746 | 50 ft | 2 kts | 159° |
| 2026-05-06 10:15 | 36.67880 | -4.49749 | 50 ft | 2 kts | 183° |
| 2026-05-06 10:15 | 36.67895 | -4.49745 | 50 ft | 2 kts | 209° |
| 2026-05-06 10:16 | 36.67902 | -4.49739 | 51 ft | 1 kts | 223° |
| 2026-05-06 10:16 | 36.67906 | -4.49735 | 51 ft | 0 kts | 222° |
| 2026-05-06 10:18 | 36.67905 | -4.49735 | 51 ft | 0 kts | 222° |
| 2026-05-06 10:18 | 36.67893 | -4.49749 | 50 ft | 6 kts | 221° |
| 2026-05-06 10:18 | 36.67835 | -4.49812 | 47 ft | 13 kts | 222° |
| 2026-05-06 10:18 | 36.67785 | -4.49861 | 45 ft | 8 kts | 199° |
| 2026-05-06 10:19 | 36.67728 | -4.49888 | 45 ft | 8 kts | 230° |
| 2026-05-06 10:19 | 36.67745 | -4.49971 | 45 ft | 12 kts | 310° |
| 2026-05-06 10:19 | 36.67813 | -4.50066 | 47 ft | 16 kts | 311° |
| 2026-05-06 10:19 | 36.67903 | -4.50193 | 48 ft | 22 kts | 312° |
| 2026-05-06 10:20 | 36.68024 | -4.50363 | 46 ft | 28 kts | 312° |
| 2026-05-06 10:20 | 36.68157 | -4.50548 | 46 ft | 28 kts | 312° |
| 2026-05-06 10:20 | 36.68282 | -4.50724 | 47 ft | 26 kts | 311° |
| 2026-05-06 10:20 | 36.68403 | -4.50893 | 50 ft | 26 kts | 311° |
| 2026-05-06 10:21 | 36.68494 | -4.51022 | 52 ft | 13 kts | 303° |
| 2026-05-06 10:21 | 36.68488 | -4.51136 | 54 ft | 14 kts | 251° |
| 2026-05-06 10:21 | 36.68460 | -4.51225 | 55 ft | 4 kts | 241° |
| 2026-05-06 10:21 | 36.68435 | -4.51230 | 55 ft | 4 kts | 144° |
| 2026-05-06 10:22 | 36.68419 | -4.51211 | 55 ft | 2 kts | 132° |
| 2026-05-06 10:22 | 36.68337 | -4.51096 | 56 ft | 48 kts | 131° |
| 2026-05-06 10:22 | 36.67956 | -4.50563 | 51 ft | 113 kts | 131° |
| 2026-05-06 10:22 | 36.67307 | -4.49656 | 43 ft | 165 kts | 131° |
| 2026-05-06 10:23 | 36.66505 | -4.48543 | 475 ft | 172 kts | 132° |
| 2026-05-06 10:23 | 36.65706 | -4.47444 | 1082 ft | 175 kts | 131° |
| 2026-05-06 10:23 | 36.64879 | -4.46283 | 1606 ft | 184 kts | 130° |
| 2026-05-06 10:23 | 36.63992 | -4.45016 | 1935 ft | 203 kts | 130° |
| 2026-05-06 10:24 | 36.62949 | -4.43786 | 2366 ft | 218 kts | 147° |
| 2026-05-06 10:24 | 36.61456 | -4.43239 | 2782 ft | 234 kts | 183° |
| 2026-05-06 10:24 | 36.59863 | -4.43652 | 3441 ft | 237 kts | 198° |
| 2026-05-06 10:24 | 36.58275 | -4.44281 | 4114 ft | 240 kts | 198° |
| 2026-05-06 10:25 | 36.56688 | -4.44888 | 4833 ft | 241 kts | 198° |
| 2026-05-06 10:25 | 36.55082 | -4.45478 | 5509 ft | 243 kts | 197° |
| 2026-05-06 10:25 | 36.53498 | -4.46180 | 6166 ft | 246 kts | 208° |
| 2026-05-06 10:25 | 36.52072 | -4.47427 | 6673 ft | 256 kts | 224° |
| 2026-05-06 10:26 | 36.50751 | -4.49016 | 7128 ft | 270 kts | 226° |
| 2026-05-06 10:26 | 36.49399 | -4.50673 | 7739 ft | 277 kts | 225° |
| 2026-05-06 10:26 | 36.47995 | -4.52326 | 8472 ft | 281 kts | 224° |
| 2026-05-06 10:26 | 36.46552 | -4.53974 | 9215 ft | 284 kts | 223° |
| 2026-05-06 10:27 | 36.45105 | -4.55606 | 9982 ft | 285 kts | 223° |
| 2026-05-06 10:27 | 36.43618 | -4.57279 | 10583 ft | 295 kts | 223° |
| 2026-05-06 10:27 | 36.42070 | -4.59023 | 11025 ft | 310 kts | 223° |
| 2026-05-06 10:27 | 36.40433 | -4.60868 | 11612 ft | 320 kts | 223° |
| 2026-05-06 10:28 | 36.38774 | -4.62737 | 12375 ft | 324 kts | 224° |
| 2026-05-06 10:28 | 36.37114 | -4.64606 | 13113 ft | 328 kts | 224° |
| 2026-05-06 10:28 | 36.35421 | -4.66510 | 13891 ft | 332 kts | 223° |
| 2026-05-06 10:28 | 36.33708 | -4.68437 | 14731 ft | 333 kts | 223° |
| 2026-05-06 10:29 | 36.32008 | -4.70349 | 15509 ft | 336 kts | 223° |
| 2026-05-06 10:29 | 36.30262 | -4.72311 | 16325 ft | 338 kts | 223° |
| 2026-05-06 10:29 | 36.28514 | -4.74275 | 17062 ft | 342 kts | 223° |
| 2026-05-06 10:29 | 36.26776 | -4.76225 | 17822 ft | 344 kts | 223° |
| 2026-05-06 10:30 | 36.24995 | -4.78223 | 18521 ft | 347 kts | 223° |
| 2026-05-06 10:30 | 36.23206 | -4.80229 | 19256 ft | 349 kts | 223° |
| 2026-05-06 10:30 | 36.21402 | -4.82248 | 19967 ft | 350 kts | 224° |
| 2026-05-06 10:30 | 36.19598 | -4.84266 | 20674 ft | 351 kts | 224° |
| 2026-05-06 10:31 | 36.17797 | -4.86280 | 21311 ft | 353 kts | 224° |
| 2026-05-06 10:31 | 36.15954 | -4.88317 | 21970 ft | 355 kts | 223° |
| 2026-05-06 10:31 | 36.14029 | -4.90208 | 22604 ft | 357 kts | 219° |
| 2026-05-06 10:31 | 36.11975 | -4.91953 | 23178 ft | 361 kts | 216° |
| 2026-05-06 10:32 | 36.09855 | -4.93630 | 23794 ft | 362 kts | 216° |
| 2026-05-06 10:32 | 36.07710 | -4.95289 | 24344 ft | 365 kts | 215° |
| 2026-05-06 10:32 | 36.05563 | -4.96946 | 24952 ft | 366 kts | 215° |
| 2026-05-06 10:32 | 36.03407 | -4.98616 | 25481 ft | 368 kts | 216° |
| 2026-05-06 10:33 | 36.01246 | -5.00300 | 26020 ft | 370 kts | 216° |
| 2026-05-06 10:33 | 35.99070 | -5.02003 | 26449 ft | 374 kts | 216° |
| 2026-05-06 10:33 | 35.96848 | -5.03746 | 26867 ft | 378 kts | 216° |
| 2026-05-06 10:33 | 35.94631 | -5.05486 | 27340 ft | 380 kts | 216° |
| 2026-05-06 10:34 | 35.92383 | -5.07253 | 27829 ft | 382 kts | 216° |
| 2026-05-06 10:34 | 35.90149 | -5.09008 | 28324 ft | 384 kts | 216° |
| 2026-05-06 10:34 | 35.87872 | -5.10800 | 28800 ft | 385 kts | 216° |
| 2026-05-06 10:34 | 35.85616 | -5.12572 | 29241 ft | 388 kts | 216° |
| 2026-05-06 10:35 | 35.83338 | -5.14363 | 29650 ft | 390 kts | 216° |
| 2026-05-06 10:35 | 35.81086 | -5.16246 | 30028 ft | 393 kts | 219° |
| 2026-05-06 10:35 | 35.78882 | -5.18243 | 30443 ft | 394 kts | 220° |
| 2026-05-06 10:35 | 35.76705 | -5.20285 | 30829 ft | 397 kts | 220° |
| 2026-05-06 10:36 | 35.74521 | -5.22347 | 31169 ft | 400 kts | 220° |
| 2026-05-06 10:36 | 35.72288 | -5.24449 | 31570 ft | 402 kts | 220° |
| 2026-05-06 10:36 | 35.70059 | -5.26534 | 31923 ft | 404 kts | 220° |
| 2026-05-06 10:36 | 35.67805 | -5.28630 | 32347 ft | 405 kts | 220° |
| 2026-05-06 10:37 | 35.65561 | -5.30709 | 32844 ft | 404 kts | 220° |
| 2026-05-06 10:37 | 35.63324 | -5.32772 | 33317 ft | 403 kts | 220° |
| 2026-05-06 10:37 | 35.61087 | -5.34831 | 33819 ft | 401 kts | 220° |
| 2026-05-06 10:37 | 35.58850 | -5.36888 | 34181 ft | 402 kts | 219° |
| 2026-05-06 10:38 | 35.56603 | -5.38949 | 34550 ft | 401 kts | 219° |
| 2026-05-06 10:38 | 35.54375 | -5.40989 | 34935 ft | 399 kts | 220° |
| 2026-05-06 10:38 | 35.52141 | -5.43031 | 35343 ft | 396 kts | 220° |
| 2026-05-06 10:38 | 35.49936 | -5.45044 | 35825 ft | 390 kts | 220° |
| 2026-05-06 10:39 | 35.47778 | -5.47013 | 36352 ft | 382 kts | 220° |
| 2026-05-06 10:39 | 35.45638 | -5.48962 | 36841 ft | 379 kts | 220° |
| 2026-05-06 10:39 | 35.43514 | -5.50898 | 37044 ft | 380 kts | 220° |
| 2026-05-06 10:39 | 35.41365 | -5.52859 | 37044 ft | 383 kts | 220° |
| 2026-05-06 10:40 | 35.37127 | -5.56719 | 37047 ft | 379 kts | 220° |
| 2026-05-06 10:40 | 35.32909 | -5.60556 | 37047 ft | 379 kts | 220° |
| 2026-05-06 10:41 | 35.28653 | -5.64426 | 37047 ft | 380 kts | 220° |
| 2026-05-06 10:41 | 35.24390 | -5.68296 | 37041 ft | 380 kts | 219° |
| 2026-05-06 10:42 | 35.20165 | -5.72125 | 37035 ft | 380 kts | 219° |
| 2026-05-06 10:42 | 35.15900 | -5.75985 | 37029 ft | 381 kts | 219° |
| 2026-05-06 10:43 | 35.11651 | -5.79827 | 37038 ft | 382 kts | 219° |
| 2026-05-06 10:44 | 35.05255 | -5.85597 | 37030 ft | 382 kts | 219° |
| 2026-05-06 10:44 | 35.00994 | -5.89436 | 37028 ft | 380 kts | 219° |
| 2026-05-06 10:45 | 34.96736 | -5.93266 | 37024 ft | 380 kts | 219° |
| 2026-05-06 10:45 | 34.92458 | -5.97112 | 37035 ft | 381 kts | 219° |
| 2026-05-06 10:46 | 34.88189 | -6.00942 | 37031 ft | 378 kts | 219° |
| 2026-05-06 10:46 | 34.83965 | -6.04729 | 37030 ft | 378 kts | 220° |
| 2026-05-06 10:47 | 34.79744 | -6.08506 | 37032 ft | 377 kts | 219° |
| 2026-05-06 10:47 | 34.75494 | -6.12305 | 37032 ft | 377 kts | 220° |
| 2026-05-06 10:48 | 34.71266 | -6.16079 | 37030 ft | 376 kts | 219° |
| 2026-05-06 10:48 | 34.67046 | -6.19842 | 37032 ft | 375 kts | 220° |
| 2026-05-06 10:49 | 34.62851 | -6.23581 | 37024 ft | 376 kts | 220° |
| 2026-05-06 10:49 | 34.58626 | -6.27337 | 37032 ft | 376 kts | 220° |
| 2026-05-06 10:50 | 34.54413 | -6.31074 | 37041 ft | 375 kts | 220° |
| 2026-05-06 10:50 | 34.50197 | -6.34813 | 37037 ft | 375 kts | 220° |
| 2026-05-06 10:51 | 34.46011 | -6.38521 | 37038 ft | 373 kts | 220° |
| 2026-05-06 10:51 | 34.41811 | -6.42238 | 37032 ft | 372 kts | 220° |
| 2026-05-06 10:52 | 34.37645 | -6.45920 | 37009 ft | 372 kts | 220° |
| 2026-05-06 10:52 | 34.33461 | -6.49611 | 37028 ft | 371 kts | 220° |
| 2026-05-06 10:53 | 34.29296 | -6.53283 | 37034 ft | 371 kts | 220° |
| 2026-05-06 10:53 | 34.25113 | -6.56965 | 37019 ft | 371 kts | 220° |
| 2026-05-06 10:54 | 34.20943 | -6.60629 | 36957 ft | 372 kts | 220° |
| 2026-05-06 10:54 | 34.16782 | -6.64280 | 36958 ft | 370 kts | 220° |
| 2026-05-06 10:55 | 34.12601 | -6.67948 | 36962 ft | 372 kts | 220° |
| 2026-05-06 10:55 | 34.08398 | -6.71630 | 36974 ft | 372 kts | 219° |
| 2026-05-06 10:56 | 34.04207 | -6.75287 | 36964 ft | 370 kts | 219° |
| 2026-05-06 10:56 | 33.99966 | -6.78818 | 36957 ft | 372 kts | 218° |
| 2026-05-06 10:57 | 33.95673 | -6.82315 | 36975 ft | 373 kts | 218° |
| 2026-05-06 10:57 | 33.91380 | -6.85820 | 36967 ft | 371 kts | 218° |
| 2026-05-06 10:58 | 33.87128 | -6.89298 | 36966 ft | 367 kts | 218° |
| 2026-05-06 10:58 | 33.82892 | -6.92767 | 36980 ft | 369 kts | 218° |
| 2026-05-06 10:59 | 33.78645 | -6.96242 | 36971 ft | 370 kts | 218° |
| 2026-05-06 10:59 | 33.74422 | -6.99689 | 36981 ft | 365 kts | 219° |
| 2026-05-06 11:00 | 33.70184 | -7.03153 | 36972 ft | 366 kts | 219° |
| 2026-05-06 11:00 | 33.65987 | -7.06573 | 36964 ft | 363 kts | 219° |
| 2026-05-06 11:01 | 33.61827 | -7.09961 | 36974 ft | 360 kts | 218° |
| 2026-05-06 11:01 | 33.57644 | -7.13368 | 36961 ft | 362 kts | 219° |
| 2026-05-06 11:02 | 33.53513 | -7.16722 | 36977 ft | 359 kts | 218° |
| 2026-05-06 11:02 | 33.49365 | -7.20095 | 36974 ft | 363 kts | 219° |
| 2026-05-06 11:03 | 33.45211 | -7.23462 | 36979 ft | 357 kts | 218° |
| 2026-05-06 11:03 | 33.41073 | -7.26806 | 36980 ft | 357 kts | 219° |
| 2026-05-06 11:04 | 33.36931 | -7.30157 | 36981 ft | 360 kts | 219° |
| 2026-05-06 11:04 | 33.32783 | -7.33506 | 36983 ft | 360 kts | 218° |
| 2026-05-06 11:05 | 33.28629 | -7.36856 | 36977 ft | 357 kts | 219° |
| 2026-05-06 11:05 | 33.24527 | -7.40168 | 36969 ft | 357 kts | 219° |
| 2026-05-06 11:06 | 33.20398 | -7.43488 | 36976 ft | 355 kts | 219° |
| 2026-05-06 11:06 | 33.16298 | -7.46787 | 36975 ft | 357 kts | 219° |
| 2026-05-06 11:07 | 33.12167 | -7.50107 | 36973 ft | 356 kts | 219° |
| 2026-05-06 11:07 | 33.07976 | -7.53252 | 36974 ft | 357 kts | 216° |
| 2026-05-06 11:08 | 33.03676 | -7.56232 | 36971 ft | 355 kts | 216° |
| 2026-05-06 11:08 | 32.99417 | -7.59181 | 36968 ft | 357 kts | 216° |
| 2026-05-06 11:08 | 32.97257 | -7.60690 | 37154 ft | 359 kts | 216° |
| 2026-05-06 11:09 | 32.95109 | -7.62193 | 36973 ft | 354 kts | 216° |
| 2026-05-06 11:09 | 32.92997 | -7.63670 | 36692 ft | 348 kts | 216° |
| 2026-05-06 11:09 | 32.90911 | -7.65129 | 36941 ft | 345 kts | 216° |
| 2026-05-06 11:10 | 32.86690 | -7.68095 | 37094 ft | 359 kts | 216° |
| 2026-05-06 11:10 | 32.84535 | -7.69612 | 36964 ft | 357 kts | 216° |
| 2026-05-06 11:10 | 32.82412 | -7.71098 | 36961 ft | 351 kts | 216° |
| 2026-05-06 11:11 | 32.78195 | -7.74048 | 36968 ft | 354 kts | 216° |
| 2026-05-06 11:11 | 32.73959 | -7.77016 | 36961 ft | 351 kts | 215° |
| 2026-05-06 11:12 | 32.69771 | -7.79942 | 36960 ft | 347 kts | 216° |
| 2026-05-06 11:12 | 32.65575 | -7.82876 | 36961 ft | 351 kts | 216° |
| 2026-05-06 11:13 | 32.61360 | -7.85817 | 36959 ft | 350 kts | 216° |
| 2026-05-06 11:13 | 32.57159 | -7.88740 | 36958 ft | 348 kts | 215° |
| 2026-05-06 11:14 | 32.52976 | -7.91647 | 36963 ft | 349 kts | 216° |
| 2026-05-06 11:14 | 32.48766 | -7.94574 | 36957 ft | 346 kts | 216° |
| 2026-05-06 11:15 | 32.44591 | -7.97472 | 36962 ft | 348 kts | 216° |
| 2026-05-06 11:15 | 32.40433 | -8.00353 | 36963 ft | 347 kts | 216° |
| 2026-05-06 11:16 | 32.36282 | -8.03225 | 36960 ft | 342 kts | 216° |
| 2026-05-06 11:16 | 32.32164 | -8.06075 | 36958 ft | 344 kts | 217° |
| 2026-05-06 11:17 | 32.28042 | -8.08926 | 36958 ft | 343 kts | 217° |
| 2026-05-06 11:17 | 32.23909 | -8.11778 | 36958 ft | 341 kts | 216° |
| 2026-05-06 11:18 | 32.19810 | -8.14607 | 36959 ft | 342 kts | 216° |
| 2026-05-06 11:18 | 32.15715 | -8.17428 | 36959 ft | 340 kts | 216° |
| 2026-05-06 11:19 | 32.11602 | -8.20254 | 36966 ft | 339 kts | 216° |
| 2026-05-06 11:19 | 32.07526 | -8.22999 | 36965 ft | 338 kts | 216° |
| 2026-05-06 11:20 | 32.03423 | -8.25748 | 36967 ft | 337 kts | 216° |
| 2026-05-06 11:20 | 31.99328 | -8.28493 | 36961 ft | 335 kts | 216° |
| 2026-05-06 11:21 | 31.95288 | -8.31201 | 36972 ft | 336 kts | 216° |
| 2026-05-06 11:21 | 31.91206 | -8.33941 | 36977 ft | 337 kts | 216° |
| 2026-05-06 11:22 | 31.87103 | -8.36684 | 36978 ft | 339 kts | 216° |
| 2026-05-06 11:22 | 31.82998 | -8.39430 | 36979 ft | 339 kts | 216° |
| 2026-05-06 11:23 | 31.78896 | -8.42168 | 36981 ft | 336 kts | 216° |
| 2026-05-06 11:23 | 31.74815 | -8.44886 | 36975 ft | 338 kts | 216° |
| 2026-05-06 11:24 | 31.70723 | -8.47614 | 36974 ft | 337 kts | 216° |
| 2026-05-06 11:24 | 31.66628 | -8.50339 | 36971 ft | 338 kts | 216° |
| 2026-05-06 11:25 | 31.62520 | -8.53070 | 36972 ft | 337 kts | 216° |
| 2026-05-06 11:25 | 31.58441 | -8.55780 | 36970 ft | 338 kts | 216° |
| 2026-05-06 11:26 | 31.54347 | -8.58496 | 36970 ft | 337 kts | 216° |
| 2026-05-06 11:26 | 31.50252 | -8.61211 | 36969 ft | 337 kts | 216° |
| 2026-05-06 11:27 | 31.46153 | -8.63927 | 36979 ft | 337 kts | 216° |
| 2026-05-06 11:27 | 31.42068 | -8.66629 | 36976 ft | 337 kts | 215° |
| 2026-05-06 11:28 | 31.37954 | -8.69348 | 36980 ft | 337 kts | 215° |
| 2026-05-06 11:28 | 31.33836 | -8.72069 | 36985 ft | 338 kts | 215° |
| 2026-05-06 11:29 | 31.29732 | -8.74776 | 36991 ft | 338 kts | 215° |
| 2026-05-06 11:29 | 31.25640 | -8.77476 | 36994 ft | 336 kts | 216° |
| 2026-05-06 11:30 | 31.21549 | -8.80169 | 37011 ft | 337 kts | 215° |
| 2026-05-06 11:30 | 31.17488 | -8.82837 | 37030 ft | 335 kts | 215° |
| 2026-05-06 11:31 | 31.13418 | -8.85510 | 37056 ft | 336 kts | 215° |
| 2026-05-06 11:31 | 31.09317 | -8.88205 | 37068 ft | 337 kts | 215° |
| 2026-05-06 11:32 | 31.05236 | -8.90879 | 37078 ft | 334 kts | 215° |
| 2026-05-06 11:32 | 31.01176 | -8.93535 | 37079 ft | 335 kts | 216° |
| 2026-05-06 11:33 | 30.97106 | -8.96200 | 37074 ft | 334 kts | 216° |
| 2026-05-06 11:33 | 30.93032 | -8.98865 | 37062 ft | 334 kts | 215° |
| 2026-05-06 11:34 | 30.88909 | -9.01557 | 37059 ft | 335 kts | 216° |
| 2026-05-06 11:34 | 30.84848 | -9.04207 | 37045 ft | 334 kts | 215° |
| 2026-05-06 11:35 | 30.80802 | -9.06842 | 37047 ft | 335 kts | 216° |
| 2026-05-06 11:35 | 30.76729 | -9.09497 | 37051 ft | 337 kts | 215° |
| 2026-05-06 11:36 | 30.72637 | -9.12157 | 37048 ft | 336 kts | 216° |
| 2026-05-06 11:36 | 30.68564 | -9.14804 | 37033 ft | 336 kts | 216° |
| 2026-05-06 11:37 | 30.64463 | -9.17469 | 37016 ft | 337 kts | 215° |
| 2026-05-06 11:37 | 30.60349 | -9.20139 | 36991 ft | 337 kts | 215° |
| 2026-05-06 11:38 | 30.56265 | -9.22784 | 36968 ft | 336 kts | 215° |
| 2026-05-06 11:38 | 30.52156 | -9.25443 | 36946 ft | 337 kts | 215° |
| 2026-05-06 11:39 | 30.48040 | -9.28104 | 36932 ft | 336 kts | 215° |
| 2026-05-06 11:39 | 30.43956 | -9.30741 | 36931 ft | 336 kts | 215° |
| 2026-05-06 11:40 | 30.39863 | -9.33383 | 36933 ft | 337 kts | 215° |
| 2026-05-06 11:40 | 30.35782 | -9.36107 | 36927 ft | 333 kts | 219° |
| 2026-05-06 11:41 | 30.32484 | -9.39757 | 36935 ft | 329 kts | 234° |
| 2026-05-06 11:41 | 30.30254 | -9.44405 | 36928 ft | 331 kts | 245° |
| 2026-05-06 11:42 | 30.28657 | -9.49441 | 36932 ft | 334 kts | 248° |
| 2026-05-06 11:42 | 30.27151 | -9.54511 | 36926 ft | 333 kts | 248° |
| 2026-05-06 11:43 | 30.25612 | -9.59571 | 36922 ft | 335 kts | 247° |
| 2026-05-06 11:43 | 30.24059 | -9.64600 | 36920 ft | 332 kts | 247° |
| 2026-05-06 11:44 | 30.21698 | -9.72200 | 36919 ft | 334 kts | 247° |
| 2026-05-06 11:44 | 30.20138 | -9.77211 | 36916 ft | 334 kts | 246° |
| 2026-05-06 11:45 | 30.18562 | -9.82267 | 36913 ft | 334 kts | 246° |
| 2026-05-06 11:45 | 30.17012 | -9.87319 | 36918 ft | 334 kts | 247° |
| 2026-05-06 11:46 | 30.15503 | -9.92386 | 36918 ft | 334 kts | 248° |
| 2026-05-06 11:46 | 30.13996 | -9.97440 | 36920 ft | 334 kts | 247° |
| 2026-05-06 11:47 | 30.12479 | -10.02510 | 36926 ft | 334 kts | 247° |
| 2026-05-06 11:47 | 30.10957 | -10.07581 | 36928 ft | 334 kts | 247° |
| 2026-05-06 11:48 | 30.09422 | -10.12669 | 36929 ft | 335 kts | 247° |
| 2026-05-06 11:48 | 30.07900 | -10.17723 | 36929 ft | 333 kts | 247° |
| 2026-05-06 11:49 | 30.06359 | -10.22773 | 36939 ft | 335 kts | 246° |
| 2026-05-06 11:49 | 30.04763 | -10.27811 | 36939 ft | 334 kts | 246° |
| 2026-05-06 11:50 | 30.03162 | -10.32840 | 36940 ft | 335 kts | 247° |
| 2026-05-06 11:50 | 30.01564 | -10.37871 | 36945 ft | 335 kts | 247° |
| 2026-05-06 11:51 | 29.99962 | -10.42919 | 36953 ft | 336 kts | 246° |
| 2026-05-06 11:51 | 29.98355 | -10.47982 | 36956 ft | 336 kts | 247° |
| 2026-05-06 11:52 | 29.96756 | -10.53013 | 36958 ft | 336 kts | 247° |
| 2026-05-06 11:52 | 29.95136 | -10.58098 | 36960 ft | 335 kts | 247° |
| 2026-05-06 11:53 | 29.93538 | -10.63109 | 36959 ft | 336 kts | 246° |
| 2026-05-06 11:53 | 29.91919 | -10.68177 | 36958 ft | 335 kts | 246° |
| 2026-05-06 11:54 | 29.90303 | -10.73219 | 36958 ft | 335 kts | 246° |
| 2026-05-06 11:54 | 29.88684 | -10.78270 | 36962 ft | 336 kts | 246° |
| 2026-05-06 11:55 | 29.87082 | -10.83270 | 36964 ft | 335 kts | 246° |
| 2026-05-06 11:55 | 29.85460 | -10.88317 | 36963 ft | 335 kts | 246° |
| 2026-05-06 11:56 | 29.83852 | -10.93314 | 36969 ft | 334 kts | 246° |
| 2026-05-06 11:56 | 29.82232 | -10.98334 | 36961 ft | 334 kts | 246° |
| 2026-05-06 11:57 | 29.80612 | -11.03351 | 36965 ft | 335 kts | 246° |
| 2026-05-06 11:57 | 29.78982 | -11.08389 | 36970 ft | 336 kts | 246° |
| 2026-05-06 11:58 | 29.77357 | -11.13400 | 36969 ft | 336 kts | 246° |
| 2026-05-06 11:58 | 29.75720 | -11.18446 | 36971 ft | 335 kts | 246° |
| 2026-05-06 11:59 | 29.74095 | -11.23452 | 36973 ft | 335 kts | 246° |
| 2026-05-06 11:59 | 29.72464 | -11.28467 | 36972 ft | 336 kts | 246° |
| 2026-05-06 12:00 | 29.70819 | -11.33513 | 36974 ft | 335 kts | 246° |
| 2026-05-06 12:00 | 29.69191 | -11.38502 | 36974 ft | 336 kts | 246° |
| 2026-05-06 12:01 | 29.67553 | -11.43512 | 36975 ft | 335 kts | 246° |
| 2026-05-06 12:01 | 29.65913 | -11.48526 | 36976 ft | 336 kts | 246° |
| 2026-05-06 12:02 | 29.64262 | -11.53560 | 36976 ft | 336 kts | 246° |
| 2026-05-06 12:02 | 29.63439 | -11.56068 | 36790 ft | 334 kts | 246° |
| 2026-05-06 12:02 | 29.62618 | -11.58566 | 36981 ft | 335 kts | 246° |
| 2026-05-06 12:03 | 29.60958 | -11.63611 | 36982 ft | 339 kts | 246° |
| 2026-05-06 12:03 | 29.59298 | -11.68660 | 36979 ft | 337 kts | 246° |
| 2026-05-06 12:04 | 29.57633 | -11.73710 | 36980 ft | 337 kts | 246° |
| 2026-05-06 12:04 | 29.55976 | -11.78731 | 36984 ft | 338 kts | 246° |
| 2026-05-06 12:05 | 29.54311 | -11.83764 | 36984 ft | 338 kts | 246° |
| 2026-05-06 12:05 | 29.53481 | -11.86275 | 36851 ft | 335 kts | 245° |
| 2026-05-06 12:05 | 29.52667 | -11.88740 | 36481 ft | 329 kts | 246° |
| 2026-05-06 12:06 | 29.51865 | -11.91167 | 35995 ft | 325 kts | 246° |
| 2026-05-06 12:06 | 29.51068 | -11.93571 | 35498 ft | 323 kts | 245° |
| 2026-05-06 12:06 | 29.50263 | -11.95994 | 35019 ft | 321 kts | 245° |
| 2026-05-06 12:06 | 29.49478 | -11.98354 | 34568 ft | 318 kts | 245° |
| 2026-05-06 12:07 | 29.48700 | -12.00692 | 34112 ft | 316 kts | 245° |
| 2026-05-06 12:07 | 29.47923 | -12.03028 | 33622 ft | 313 kts | 245° |
| 2026-05-06 12:07 | 29.47151 | -12.05346 | 33152 ft | 310 kts | 246° |
| 2026-05-06 12:07 | 29.46389 | -12.07636 | 32699 ft | 306 kts | 245° |
| 2026-05-06 12:08 | 29.45639 | -12.09890 | 32259 ft | 302 kts | 245° |
| 2026-05-06 12:08 | 29.44892 | -12.12130 | 31820 ft | 299 kts | 246° |
| 2026-05-06 12:08 | 29.44155 | -12.14339 | 31385 ft | 295 kts | 246° |
| 2026-05-06 12:08 | 29.43430 | -12.16508 | 30956 ft | 292 kts | 246° |
| 2026-05-06 12:09 | 29.42704 | -12.18682 | 30527 ft | 290 kts | 246° |
| 2026-05-06 12:09 | 29.41988 | -12.20818 | 30116 ft | 296 kts | 246° |
| 2026-05-06 12:09 | 29.41220 | -12.23098 | 29667 ft | 309 kts | 246° |
| 2026-05-06 12:09 | 29.40445 | -12.25405 | 29207 ft | 312 kts | 246° |
| 2026-05-06 12:10 | 29.39680 | -12.27688 | 28758 ft | 308 kts | 247° |
| 2026-05-06 12:10 | 29.38920 | -12.29963 | 28315 ft | 305 kts | 246° |
| 2026-05-06 12:10 | 29.38163 | -12.32228 | 27872 ft | 301 kts | 247° |
| 2026-05-06 12:10 | 29.37419 | -12.34448 | 27442 ft | 298 kts | 247° |
| 2026-05-06 12:11 | 29.36684 | -12.36638 | 27014 ft | 295 kts | 247° |
| 2026-05-06 12:11 | 29.35955 | -12.38806 | 26589 ft | 291 kts | 247° |
| 2026-05-06 12:11 | 29.35234 | -12.40949 | 26176 ft | 289 kts | 247° |
| 2026-05-06 12:11 | 29.34509 | -12.43100 | 25761 ft | 286 kts | 248° |
| 2026-05-06 12:12 | 29.33792 | -12.45227 | 25357 ft | 289 kts | 248° |
| 2026-05-06 12:12 | 29.33054 | -12.47411 | 24932 ft | 303 kts | 248° |
| 2026-05-06 12:12 | 29.32280 | -12.49703 | 24485 ft | 314 kts | 248° |
| 2026-05-06 12:12 | 29.31495 | -12.52029 | 24036 ft | 313 kts | 248° |
| 2026-05-06 12:13 | 29.30718 | -12.54333 | 23598 ft | 310 kts | 249° |
| 2026-05-06 12:13 | 29.29947 | -12.56616 | 23159 ft | 307 kts | 249° |
| 2026-05-06 12:13 | 29.29191 | -12.58852 | 22738 ft | 304 kts | 249° |
| 2026-05-06 12:13 | 29.28432 | -12.61094 | 22316 ft | 301 kts | 249° |
| 2026-05-06 12:14 | 29.27680 | -12.63317 | 21896 ft | 298 kts | 249° |
| 2026-05-06 12:14 | 29.26935 | -12.65518 | 21480 ft | 295 kts | 249° |
| 2026-05-06 12:14 | 29.26197 | -12.67695 | 21070 ft | 293 kts | 249° |
| 2026-05-06 12:14 | 29.25466 | -12.69854 | 20665 ft | 291 kts | 249° |
| 2026-05-06 12:15 | 29.24739 | -12.71994 | 20263 ft | 288 kts | 248° |
| 2026-05-06 12:15 | 29.23915 | -12.74071 | 19867 ft | 286 kts | 244° |
| 2026-05-06 12:15 | 29.23011 | -12.76065 | 19477 ft | 284 kts | 243° |
| 2026-05-06 12:15 | 29.22088 | -12.78048 | 19088 ft | 282 kts | 243° |
| 2026-05-06 12:16 | 29.21176 | -12.80029 | 18702 ft | 279 kts | 243° |
| 2026-05-06 12:16 | 29.20283 | -12.81997 | 18316 ft | 277 kts | 243° |
| 2026-05-06 12:16 | 29.19417 | -12.83926 | 17942 ft | 275 kts | 244° |
| 2026-05-06 12:16 | 29.18543 | -12.85881 | 17565 ft | 273 kts | 244° |
| 2026-05-06 12:17 | 29.17688 | -12.87801 | 17193 ft | 271 kts | 244° |
| 2026-05-06 12:17 | 29.16832 | -12.89720 | 16820 ft | 269 kts | 244° |
| 2026-05-06 12:17 | 29.15990 | -12.91610 | 16460 ft | 273 kts | 244° |
| 2026-05-06 12:17 | 29.15108 | -12.93587 | 16078 ft | 285 kts | 244° |
| 2026-05-06 12:18 | 29.14192 | -12.95641 | 15673 ft | 290 kts | 244° |
| 2026-05-06 12:18 | 29.13282 | -12.97674 | 15276 ft | 288 kts | 244° |
| 2026-05-06 12:18 | 29.12379 | -12.99691 | 14887 ft | 285 kts | 244° |
| 2026-05-06 12:18 | 29.11480 | -13.01701 | 14502 ft | 283 kts | 244° |
| 2026-05-06 12:19 | 29.10589 | -13.03689 | 14120 ft | 281 kts | 244° |
| 2026-05-06 12:19 | 29.09701 | -13.05671 | 13743 ft | 279 kts | 244° |
| 2026-05-06 12:19 | 29.08820 | -13.07637 | 13361 ft | 277 kts | 244° |
| 2026-05-06 12:19 | 29.07942 | -13.09595 | 12993 ft | 275 kts | 244° |
| 2026-05-06 12:20 | 29.07072 | -13.11535 | 12625 ft | 273 kts | 245° |
| 2026-05-06 12:20 | 29.06212 | -13.13454 | 12260 ft | 272 kts | 244° |
| 2026-05-06 12:20 | 29.05345 | -13.15386 | 11892 ft | 270 kts | 245° |
| 2026-05-06 12:20 | 29.04497 | -13.17275 | 11533 ft | 268 kts | 245° |
| 2026-05-06 12:21 | 29.03649 | -13.19161 | 11176 ft | 267 kts | 245° |
| 2026-05-06 12:21 | 29.02804 | -13.21040 | 10821 ft | 265 kts | 245° |
| 2026-05-06 12:21 | 29.01965 | -13.22907 | 10467 ft | 264 kts | 245° |
| 2026-05-06 12:21 | 29.01133 | -13.24756 | 10122 ft | 262 kts | 245° |
| 2026-05-06 12:22 | 29.00301 | -13.26604 | 9903 ft | 255 kts | 245° |
| 2026-05-06 12:22 | 28.99499 | -13.28386 | 9600 ft | 253 kts | 246° |
| 2026-05-06 12:22 | 28.98676 | -13.30150 | 9276 ft | 252 kts | 241° |
| 2026-05-06 12:22 | 28.97551 | -13.31667 | 8945 ft | 254 kts | 218° |
| 2026-05-06 12:23 | 28.95930 | -13.32532 | 8670 ft | 262 kts | 200° |
| 2026-05-06 12:23 | 28.94113 | -13.33132 | 8309 ft | 277 kts | 198° |
| 2026-05-06 12:23 | 28.92263 | -13.33739 | 8100 ft | 271 kts | 199° |
| 2026-05-06 12:23 | 28.90528 | -13.34440 | 8013 ft | 258 kts | 209° |
| 2026-05-06 12:24 | 28.89125 | -13.35597 | 8000 ft | 245 kts | 230° |
| 2026-05-06 12:24 | 28.88057 | -13.37059 | 7863 ft | 236 kts | 235° |
| 2026-05-06 12:24 | 28.87044 | -13.38545 | 7617 ft | 233 kts | 234° |
| 2026-05-06 12:24 | 28.86030 | -13.39954 | 7349 ft | 232 kts | 233° |
| 2026-05-06 12:25 | 28.84981 | -13.41353 | 7078 ft | 230 kts | 232° |
| 2026-05-06 12:25 | 28.83925 | -13.42743 | 6812 ft | 228 kts | 232° |
| 2026-05-06 12:25 | 28.82895 | -13.44100 | 6585 ft | 229 kts | 232° |
| 2026-05-06 12:25 | 28.81817 | -13.45521 | 6316 ft | 243 kts | 232° |
| 2026-05-06 12:26 | 28.80700 | -13.46992 | 6022 ft | 245 kts | 232° |
| 2026-05-06 12:26 | 28.79593 | -13.48441 | 5712 ft | 245 kts | 231° |
| 2026-05-06 12:26 | 28.78464 | -13.49914 | 5381 ft | 245 kts | 232° |
| 2026-05-06 12:26 | 28.77348 | -13.51379 | 5088 ft | 243 kts | 232° |
| 2026-05-06 12:27 | 28.76242 | -13.52834 | 4800 ft | 242 kts | 232° |
| 2026-05-06 12:27 | 28.75143 | -13.54279 | 4526 ft | 242 kts | 232° |
| 2026-05-06 12:27 | 28.74036 | -13.55760 | 4232 ft | 245 kts | 234° |
| 2026-05-06 12:27 | 28.73178 | -13.57439 | 3925 ft | 244 kts | 257° |
| 2026-05-06 12:28 | 28.73107 | -13.59289 | 3660 ft | 236 kts | 287° |
| 2026-05-06 12:28 | 28.73596 | -13.61071 | 3386 ft | 236 kts | 294° |
| 2026-05-06 12:28 | 28.74145 | -13.62832 | 3251 ft | 230 kts | 293° |
| 2026-05-06 12:28 | 28.74637 | -13.64545 | 3179 ft | 223 kts | 292° |
| 2026-05-06 12:29 | 28.75110 | -13.66204 | 3111 ft | 216 kts | 296° |
| 2026-05-06 12:29 | 28.75863 | -13.67649 | 3014 ft | 210 kts | 321° |
| 2026-05-06 12:29 | 28.77048 | -13.68594 | 2993 ft | 206 kts | 334° |
| 2026-05-06 12:29 | 28.78356 | -13.69214 | 2919 ft | 203 kts | 352° |
| 2026-05-06 12:30 | 28.79749 | -13.69225 | 2801 ft | 200 kts | 15° |
| 2026-05-06 12:30 | 28.81016 | -13.68590 | 2599 ft | 197 kts | 30° |
| 2026-05-06 12:30 | 28.82152 | -13.67758 | 2445 ft | 190 kts | 33° |
| 2026-05-06 12:30 | 28.83257 | -13.67005 | 2334 ft | 178 kts | 28° |
| 2026-05-06 12:31 | 28.84349 | -13.66391 | 2067 ft | 172 kts | 26° |
| 2026-05-06 12:31 | 28.85386 | -13.65808 | 1864 ft | 155 kts | 28° |
| 2026-05-06 12:31 | 28.86300 | -13.65272 | 1666 ft | 139 kts | 28° |
| 2026-05-06 12:31 | 28.87138 | -13.64791 | 1451 ft | 134 kts | 27° |
| 2026-05-06 12:32 | 28.87960 | -13.64317 | 1296 ft | 133 kts | 28° |
| 2026-05-06 12:32 | 28.88791 | -13.63835 | 1111 ft | 134 kts | 29° |
| 2026-05-06 12:32 | 28.89629 | -13.63332 | 932 ft | 135 kts | 29° |
| 2026-05-06 12:32 | 28.90468 | -13.62861 | 751 ft | 135 kts | 26° |
| 2026-05-06 12:33 | 28.91326 | -13.62406 | 564 ft | 136 kts | 29° |
| 2026-05-06 12:33 | 28.92170 | -13.61920 | 412 ft | 135 kts | 31° |
| 2026-05-06 12:33 | 28.93000 | -13.61418 | 224 ft | 136 kts | 31° |
| 2026-05-06 12:33 | 28.93856 | -13.60924 | 48 ft | 135 kts | 31° |
| 2026-05-06 12:34 | 28.94579 | -13.60506 | 50 ft | 87 kts | 27° |
| 2026-05-06 12:34 | 28.94923 | -13.60303 | 59 ft | 35 kts | 28° |
| 2026-05-06 12:34 | 28.95124 | -13.60206 | 63 ft | 22 kts | 360° |
| 2026-05-06 12:34 | 28.95251 | -13.60208 | 69 ft | 11 kts | 360° |